createdAt,value
2018-12-13T00:01:32.496Z,4.90
2018-12-13T00:03:58.972Z,4.90
2018-12-13T00:06:25.351Z,4.90
2018-12-13T00:08:51.714Z,4.70
2018-12-13T00:11:18.094Z,5.00
2018-12-13T00:13:44.462Z,5.30
2018-12-13T00:16:10.850Z,5.10
2018-12-13T00:18:37.219Z,5.30
2018-12-13T00:21:10.671Z,5.20
2018-12-13T00:23:37.139Z,5.20
2018-12-13T00:26:03.526Z,5.50
2018-12-13T00:28:29.888Z,5.40
2018-12-13T00:30:56.362Z,5.40
2018-12-13T00:33:22.829Z,5.10
2018-12-13T00:35:49.204Z,5.30
2018-12-13T00:38:15.596Z,5.10
2018-12-13T00:40:41.970Z,5.10
2018-12-13T00:43:08.351Z,5.30
2018-12-13T00:45:41.794Z,5.10
2018-12-13T00:48:08.175Z,5.20
2018-12-13T00:50:34.538Z,5.40
2018-12-13T00:53:00.930Z,5.20
2018-12-13T00:55:27.287Z,5.10
2018-12-13T00:57:53.662Z,5.20
2018-12-13T01:00:20.018Z,4.80
2018-12-13T01:02:46.400Z,4.80
2018-12-13T01:05:12.763Z,4.90
2018-12-13T01:07:39.345Z,5.00
2018-12-13T01:10:05.987Z,5.10
2018-12-13T01:12:32.350Z,4.80
2018-12-13T01:14:58.811Z,5.00
2018-12-13T01:17:25.181Z,4.80
2018-12-13T01:19:58.555Z,5.10
2018-12-13T01:22:24.939Z,4.90
2018-12-13T01:24:51.436Z,5.20
2018-12-13T01:27:17.876Z,5.10
2018-12-13T01:29:44.359Z,5.20
2018-12-13T01:32:10.735Z,5.00
2018-12-13T01:34:37.131Z,5.00
2018-12-13T01:37:03.504Z,5.20
2018-12-13T01:39:29.881Z,4.80
2018-12-13T01:41:56.263Z,4.80
2018-12-13T01:44:22.642Z,5.00
2018-12-13T01:46:48.996Z,4.90
2018-12-13T01:49:15.381Z,4.80
2018-12-13T01:51:41.745Z,4.80
2018-12-13T01:54:08.143Z,4.50
2018-12-13T01:56:34.487Z,4.50
2018-12-13T01:59:00.846Z,4.50
2018-12-13T02:01:27.343Z,4.70
2018-12-13T02:03:53.815Z,4.60
2018-12-13T02:06:20.303Z,4.80
2018-12-13T02:08:46.667Z,4.60
2018-12-13T02:11:13.054Z,4.50
2018-12-13T02:13:39.454Z,4.50
2018-12-13T02:16:05.848Z,4.40
2018-12-13T02:18:32.311Z,3.90
2018-12-13T02:20:59.946Z,4.30
2018-12-13T02:23:26.308Z,3.90
2018-12-13T02:25:52.678Z,3.90
2018-12-13T02:28:19.135Z,4.40
2018-12-13T02:30:45.624Z,4.30
2018-12-13T02:33:11.998Z,3.90
2018-12-13T02:35:38.370Z,3.90
2018-12-13T02:38:04.842Z,3.90
2018-12-13T02:40:31.215Z,3.80
2018-12-13T02:42:57.595Z,3.70
2018-12-13T02:45:23.955Z,4.00
2018-12-13T02:47:50.372Z,3.70
2018-12-13T02:50:16.735Z,3.80
2018-12-13T02:52:43.137Z,3.80
2018-12-13T02:55:09.531Z,3.80
2018-12-13T02:57:35.921Z,4.20
2018-12-13T03:00:04.227Z,4.20
2018-12-13T03:02:30.629Z,4.00
2018-12-13T03:04:56.986Z,3.70
2018-12-13T03:07:23.390Z,3.60
2018-12-13T03:09:49.765Z,3.50
2018-12-13T03:12:16.239Z,3.50
2018-12-13T03:14:42.787Z,3.50
2018-12-13T03:17:09.128Z,3.60
2018-12-13T03:19:35.508Z,3.60
2018-12-13T03:22:01.870Z,3.70
2018-12-13T03:24:35.236Z,3.70
2018-12-13T03:27:01.626Z,3.60
2018-12-13T03:29:28.019Z,3.50
2018-12-13T03:31:54.401Z,3.60
2018-12-13T03:34:20.871Z,3.40
2018-12-13T03:36:47.246Z,3.10
2018-12-13T03:39:13.633Z,3.40
2018-12-13T03:41:40.001Z,3.30
2018-12-13T03:44:06.512Z,3.20
2018-12-13T03:46:32.879Z,3.30
2018-12-13T03:48:59.277Z,3.30
2018-12-13T03:51:25.657Z,3.30
2018-12-13T03:53:52.164Z,3.30
2018-12-13T03:56:18.744Z,3.40
2018-12-13T03:58:45.103Z,3.30
2018-12-13T04:01:11.515Z,3.40
2018-12-13T04:03:37.880Z,3.50
2018-12-13T04:06:04.371Z,3.20
2018-12-13T04:08:30.738Z,3.60
2018-12-13T04:10:57.234Z,3.40
2018-12-13T04:13:23.608Z,3.40
2018-12-13T04:15:49.984Z,3.60
2018-12-13T04:18:16.616Z,3.30
2018-12-13T04:20:43.033Z,3.70
2018-12-13T04:23:09.400Z,3.20
2018-12-13T04:25:35.792Z,3.30
2018-12-13T04:28:02.180Z,3.70
2018-12-13T04:30:28.561Z,3.40
2018-12-13T04:32:54.920Z,3.30
2018-12-13T04:35:21.280Z,3.50
2018-12-13T04:37:47.660Z,3.30
2018-12-13T04:40:14.061Z,3.20
2018-12-13T04:42:40.456Z,3.10
2018-12-13T04:45:06.841Z,3.70
2018-12-13T04:47:33.357Z,3.40
2018-12-13T04:49:59.710Z,3.20
2018-12-13T04:52:26.098Z,3.40
2018-12-13T04:54:52.558Z,3.50
2018-12-13T04:57:18.938Z,3.40
2018-12-13T04:59:45.316Z,3.10
2018-12-13T05:02:11.823Z,3.20
2018-12-13T05:04:38.166Z,3.20
2018-12-13T05:07:04.551Z,3.40
2018-12-13T05:09:30.942Z,3.30
2018-12-13T05:11:57.306Z,3.40
2018-12-13T05:14:23.698Z,3.20
2018-12-13T05:16:50.059Z,3.40
2018-12-13T05:19:16.569Z,2.90
2018-12-13T05:21:42.934Z,3.00
2018-12-13T05:24:09.307Z,3.10
2018-12-13T05:26:35.679Z,2.90
2018-12-13T05:29:02.086Z,3.10
2018-12-13T05:31:28.449Z,3.20
2018-12-13T05:33:54.810Z,3.00
2018-12-13T05:36:21.167Z,3.00
2018-12-13T05:38:47.543Z,3.20
2018-12-13T05:41:13.916Z,2.80
2018-12-13T05:43:40.362Z,2.60
2018-12-13T05:46:06.791Z,2.70
2018-12-13T05:48:33.143Z,2.80
2018-12-13T05:50:59.539Z,2.90
2018-12-13T05:53:25.908Z,2.90
2018-12-13T05:55:52.275Z,2.40
2018-12-13T05:58:18.734Z,2.40
2018-12-13T06:00:45.124Z,2.60
2018-12-13T06:03:11.467Z,2.70
2018-12-13T06:05:37.865Z,2.80
2018-12-13T06:08:04.213Z,2.60
2018-12-13T06:10:30.578Z,2.50
2018-12-13T06:12:56.980Z,2.50
2018-12-13T06:15:23.339Z,2.60
2018-12-13T06:17:49.832Z,2.50
2018-12-13T06:20:16.340Z,2.40
2018-12-13T06:22:42.859Z,2.30
2018-12-13T06:25:09.316Z,2.50
2018-12-13T06:27:42.687Z,2.40
2018-12-13T06:30:09.143Z,2.60
2018-12-13T06:32:42.411Z,2.50
2018-12-13T06:35:08.927Z,2.70
2018-12-13T06:37:35.320Z,2.40
2018-12-13T06:40:01.726Z,2.90
2018-12-13T06:42:28.458Z,2.70
2018-12-13T06:44:54.880Z,2.70
2018-12-13T06:47:21.306Z,2.90
2018-12-13T06:49:47.643Z,3.00
2018-12-13T06:52:14.011Z,2.70
2018-12-13T06:54:40.425Z,2.40
2018-12-13T06:57:06.807Z,2.60
2018-12-13T06:59:33.192Z,2.40
2018-12-13T07:01:59.582Z,2.70
2018-12-13T07:04:25.960Z,2.90
2018-12-13T07:06:52.440Z,2.60
2018-12-13T07:09:18.931Z,2.50
2018-12-13T07:11:45.291Z,2.60
2018-12-13T07:14:11.679Z,2.60
2018-12-13T07:16:38.095Z,2.70
2018-12-13T07:19:04.572Z,2.60
2018-12-13T07:21:30.983Z,2.70
2018-12-13T07:23:57.334Z,2.70
2018-12-13T07:26:23.718Z,2.70
2018-12-13T07:28:50.092Z,2.50
2018-12-13T07:31:16.476Z,2.30
2018-12-13T07:33:42.822Z,2.20
2018-12-13T07:36:16.156Z,2.30
2018-12-13T07:38:42.581Z,2.40
2018-12-13T07:41:08.979Z,2.20
2018-12-13T07:43:35.438Z,2.50
2018-12-13T07:46:01.803Z,2.30
2018-12-13T07:48:28.175Z,2.00
2018-12-13T07:50:54.542Z,2.00
2018-12-13T07:53:20.943Z,2.40
2018-12-13T07:55:47.298Z,2.20
2018-12-13T07:58:13.690Z,2.20
2018-12-13T08:00:40.091Z,2.70
2018-12-13T08:03:06.475Z,2.40
2018-12-13T08:05:32.863Z,2.50
2018-12-13T08:07:59.340Z,2.70
2018-12-13T08:10:25.693Z,2.60
2018-12-13T08:12:52.072Z,2.50
2018-12-13T08:15:18.566Z,2.60
2018-12-13T08:17:45.044Z,2.40
2018-12-13T08:20:11.452Z,2.70
2018-12-13T08:22:37.818Z,2.60
2018-12-13T08:25:04.439Z,2.60
2018-12-13T08:27:30.810Z,3.00
2018-12-13T08:29:57.178Z,2.80
2018-12-13T08:32:23.527Z,3.10
2018-12-13T08:34:49.927Z,3.10
2018-12-13T08:37:16.290Z,3.00
2018-12-13T08:39:42.670Z,3.40
2018-12-13T08:42:09.052Z,3.10
2018-12-13T08:44:42.334Z,3.20
2018-12-13T08:47:08.902Z,3.20
2018-12-13T08:49:35.420Z,3.40
2018-12-13T08:52:01.875Z,3.80
2018-12-13T08:54:28.258Z,3.90
2018-12-13T08:57:01.579Z,4.20
2018-12-13T08:59:27.964Z,4.30
2018-12-13T09:01:54.370Z,5.20
2018-12-13T09:04:20.734Z,6.60
2018-12-13T09:06:47.126Z,6.70
2018-12-13T09:09:13.470Z,6.90
2018-12-13T09:11:39.956Z,7.00
2018-12-13T09:14:06.355Z,7.90
2018-12-13T09:16:32.831Z,8.90
2018-12-13T09:18:59.323Z,10.40
2018-12-13T09:21:25.952Z,11.30
2018-12-13T09:23:52.386Z,11.30
2018-12-13T09:26:18.846Z,11.60
2018-12-13T09:28:45.237Z,11.40
2018-12-13T09:31:11.751Z,12.90
2018-12-13T09:33:38.163Z,13.50
2018-12-13T09:36:04.543Z,13.60
2018-12-13T09:38:30.936Z,13.40
2018-12-13T09:40:57.343Z,12.90
2018-12-13T09:43:23.742Z,12.80
2018-12-13T09:45:50.177Z,12.50
2018-12-13T09:48:16.569Z,13.10
2018-12-13T09:50:42.956Z,14.10
2018-12-13T09:53:09.350Z,14.60
2018-12-13T09:55:35.728Z,14.80
2018-12-13T09:58:02.227Z,14.20
2018-12-13T10:00:28.675Z,13.90
2018-12-13T10:02:55.228Z,13.60
2018-12-13T10:05:21.792Z,13.30
2018-12-13T10:07:48.176Z,13.50
2018-12-13T10:10:14.559Z,13.30
2018-12-13T10:12:41.012Z,13.90
2018-12-13T10:15:07.481Z,14.10
2018-12-13T10:17:33.874Z,13.90
2018-12-13T10:20:00.297Z,14.60
2018-12-13T10:22:26.727Z,14.30
2018-12-13T10:24:53.105Z,15.20
2018-12-13T10:27:19.465Z,15.20
2018-12-13T10:29:45.886Z,15.90
2018-12-13T10:32:12.265Z,15.60
2018-12-13T10:34:38.692Z,15.30
2018-12-13T10:37:05.076Z,16.30
2018-12-13T10:39:31.535Z,15.20
2018-12-13T10:41:58.005Z,14.20
2018-12-13T10:44:30.460Z,14.00
2018-12-13T10:46:57.047Z,13.80
2018-12-13T10:49:23.531Z,13.10
2018-12-13T10:51:57.027Z,12.40
2018-12-13T10:54:23.543Z,11.90
2018-12-13T10:56:49.980Z,12.80
2018-12-13T10:59:16.443Z,12.30
2018-12-13T11:01:44.909Z,12.10
2018-12-13T11:04:11.403Z,11.70
2018-12-13T11:06:37.783Z,11.00
2018-12-13T11:09:05.387Z,9.90
2018-12-13T11:11:31.767Z,9.70
2018-12-13T11:13:58.162Z,8.80
2018-12-13T11:16:24.776Z,8.70
2018-12-13T11:18:51.123Z,8.50
2018-12-13T11:21:17.684Z,8.20
2018-12-13T11:23:44.986Z,8.30
2018-12-13T11:26:11.666Z,7.90
2018-12-13T11:28:59.111Z,9.40
2018-12-13T11:31:32.428Z,9.50
2018-12-13T11:33:58.979Z,10.60
2018-12-13T11:36:25.431Z,10.70
2018-12-13T11:38:51.930Z,10.80
2018-12-13T11:41:18.402Z,10.90
2018-12-13T11:43:44.837Z,10.60
2018-12-13T11:46:11.244Z,9.90
2018-12-13T11:48:37.654Z,10.60
2018-12-13T11:51:04.056Z,10.60
2018-12-13T11:53:30.479Z,11.10
2018-12-13T11:55:56.888Z,11.00
2018-12-13T11:58:23.335Z,11.10
2018-12-13T12:00:49.875Z,11.70
2018-12-13T12:03:16.477Z,13.40
2018-12-13T12:05:42.937Z,13.80
2018-12-13T12:08:09.619Z,13.40
2018-12-13T12:10:36.076Z,13.90
2018-12-13T12:13:02.975Z,13.40
2018-12-13T12:15:29.444Z,14.00
2018-12-13T12:17:55.913Z,14.50
2018-12-13T12:20:22.331Z,13.70
2018-12-13T12:22:48.783Z,13.30
2018-12-13T12:25:15.189Z,13.30
2018-12-13T12:27:41.607Z,12.70
2018-12-13T12:30:08.449Z,13.20
2018-12-13T12:32:34.919Z,13.30
2018-12-13T12:35:01.409Z,12.60
2018-12-13T12:37:27.862Z,13.40
2018-12-13T12:39:54.346Z,13.20
2018-12-13T12:42:20.747Z,13.40
2018-12-13T12:44:47.149Z,13.30
2018-12-13T12:47:13.587Z,13.40
2018-12-13T12:49:47.038Z,13.70
2018-12-13T12:52:13.480Z,13.60
2018-12-13T12:54:39.952Z,13.80
2018-12-13T12:57:06.496Z,13.80
2018-12-13T12:59:32.996Z,14.60
2018-12-13T13:01:59.412Z,13.30
2018-12-13T13:04:25.936Z,12.80
2018-12-13T13:06:59.331Z,12.50
2018-12-13T13:09:25.798Z,12.90
2018-12-13T13:11:52.297Z,12.90
2018-12-13T13:14:18.760Z,13.50
2018-12-13T13:16:45.171Z,13.10
2018-12-13T13:19:11.586Z,11.90
2018-12-13T13:21:38.050Z,11.50
2018-12-13T13:24:04.443Z,11.50
2018-12-13T13:26:30.890Z,11.50
2018-12-13T13:28:57.304Z,10.80
2018-12-13T13:31:23.795Z,9.80
2018-12-13T13:33:50.224Z,9.60
2018-12-13T13:36:16.608Z,9.70
2018-12-13T13:38:43.071Z,9.90
2018-12-13T13:41:09.471Z,10.30
2018-12-13T13:43:35.858Z,9.80
2018-12-13T13:46:02.285Z,9.80
2018-12-13T13:48:28.707Z,9.80
2018-12-13T13:50:55.435Z,10.40
2018-12-13T13:53:21.850Z,9.80
2018-12-13T13:55:48.266Z,10.20
2018-12-13T13:58:14.671Z,10.30
2018-12-13T14:00:41.076Z,10.00
2018-12-13T14:03:07.784Z,10.20
2018-12-13T14:05:34.171Z,10.10
2018-12-13T14:08:00.602Z,9.80
2018-12-13T14:10:27.006Z,9.90
2018-12-13T14:12:53.572Z,9.70
2018-12-13T14:15:20.064Z,9.70
2018-12-13T14:17:46.476Z,9.30
2018-12-13T14:20:12.896Z,9.00
2018-12-13T14:22:39.398Z,9.50
2018-12-13T14:25:05.944Z,9.00
2018-12-13T14:27:32.360Z,8.90
2018-12-13T14:29:58.862Z,8.50
2018-12-13T14:32:25.234Z,8.70
2018-12-13T14:34:57.366Z,8.40
2018-12-13T14:37:20.176Z,8.40
2018-12-13T14:39:46.554Z,8.50
2018-12-13T14:42:12.954Z,8.30
2018-12-13T14:44:39.434Z,7.80
2018-12-13T14:47:05.991Z,7.90
2018-12-13T14:49:32.418Z,7.80
2018-12-13T14:51:58.906Z,7.50
2018-12-13T14:54:25.276Z,7.40
2018-12-13T14:56:51.656Z,7.50
2018-12-13T14:59:18.075Z,7.30
2018-12-13T15:01:44.442Z,7.20
2018-12-13T15:04:10.819Z,7.20
2018-12-13T15:06:37.196Z,6.70
2018-12-13T15:09:05.086Z,6.60
2018-12-13T15:11:31.463Z,6.60
2018-12-13T15:13:57.975Z,6.10
2018-12-13T15:16:24.513Z,6.00
2018-12-13T15:18:50.941Z,6.00
2018-12-13T15:21:17.391Z,5.80
2018-12-13T15:23:43.773Z,5.50
2018-12-13T15:26:10.259Z,5.40
2018-12-13T15:28:36.696Z,5.10
2018-12-13T15:31:03.195Z,5.30
2018-12-13T15:33:29.653Z,5.30
2018-12-13T15:35:56.056Z,4.90
2018-12-13T15:38:22.439Z,5.20
2018-12-13T15:40:48.826Z,5.40
2018-12-13T15:43:15.229Z,5.10
2018-12-13T15:45:41.875Z,5.00
2018-12-13T15:48:08.338Z,4.70
2018-12-13T15:50:34.748Z,5.00
2018-12-13T15:53:01.262Z,4.80
2018-12-13T15:55:34.549Z,4.50
2018-12-13T15:58:00.927Z,4.40
2018-12-13T16:00:27.542Z,4.30
2018-12-13T16:02:53.932Z,4.40
2018-12-13T16:05:20.314Z,4.60
2018-12-13T16:07:46.764Z,4.20
2018-12-13T16:10:13.232Z,4.60
2018-12-13T16:12:39.701Z,4.50
2018-12-13T16:15:06.404Z,4.50
2018-12-13T16:17:32.823Z,4.40
2018-12-13T16:19:59.249Z,4.20
2018-12-13T16:22:32.703Z,4.50
2018-12-13T16:24:59.135Z,4.20
2018-12-13T16:27:25.768Z,4.50
2018-12-13T16:29:52.474Z,4.30
2018-12-13T16:32:18.877Z,4.40
2018-12-13T16:34:45.278Z,4.50
2018-12-13T16:37:11.679Z,4.30
2018-12-13T16:39:38.047Z,4.00
2018-12-13T16:42:04.447Z,4.10
2018-12-13T16:44:30.835Z,4.20
2018-12-13T16:46:57.271Z,4.00
2018-12-13T16:49:23.709Z,4.20
2018-12-13T16:51:50.200Z,4.10
2018-12-13T16:54:16.568Z,4.00
2018-12-13T16:56:43.001Z,3.70
2018-12-13T16:59:09.402Z,3.70
2018-12-13T17:01:35.810Z,4.10
2018-12-13T17:04:02.225Z,3.90
2018-12-13T17:06:28.647Z,4.50
2018-12-13T17:08:55.108Z,4.30
2018-12-13T17:11:21.516Z,4.00
2018-12-13T17:13:47.880Z,4.20
2018-12-13T17:16:14.287Z,4.00
2018-12-13T17:18:40.720Z,4.10
2018-12-13T17:21:07.123Z,3.90
2018-12-13T17:23:33.520Z,4.30
2018-12-13T17:25:59.898Z,4.00
2018-12-13T17:28:26.292Z,4.20
2018-12-13T17:30:52.703Z,4.50
2018-12-13T17:33:19.151Z,3.90
2018-12-13T17:35:45.728Z,4.50
2018-12-13T17:38:12.327Z,4.20
2018-12-13T17:40:38.939Z,4.40
2018-12-13T17:43:05.381Z,4.20
2018-12-13T17:45:32.516Z,4.20
2018-12-13T17:47:59.076Z,4.30
2018-12-13T17:50:25.995Z,4.60
2018-12-13T17:52:52.383Z,4.50
2018-12-13T17:55:18.979Z,4.10
2018-12-13T17:57:45.379Z,4.50
2018-12-13T18:00:13.153Z,4.20
2018-12-13T18:02:39.617Z,4.20
2018-12-13T18:05:06.337Z,4.00
2018-12-13T18:07:39.836Z,4.50
2018-12-13T18:10:08.616Z,4.50
2018-12-13T18:12:35.047Z,4.10
2018-12-13T18:15:02.521Z,3.90
2018-12-13T18:17:28.930Z,4.00
2018-12-13T18:19:55.451Z,4.30
2018-12-13T18:22:21.993Z,4.20
2018-12-13T18:24:48.419Z,4.00
2018-12-13T18:27:15.261Z,4.30
2018-12-13T18:29:41.892Z,4.00
2018-12-13T18:32:08.279Z,4.00
2018-12-13T18:34:34.716Z,4.00
2018-12-13T18:37:02.523Z,3.90
2018-12-13T18:39:28.907Z,3.80
2018-12-13T18:41:55.297Z,3.80
2018-12-13T18:44:21.709Z,3.90
2018-12-13T18:46:49.129Z,3.90
2018-12-13T18:49:15.803Z,3.90
2018-12-13T18:51:42.207Z,3.70
2018-12-13T18:54:08.618Z,4.20
2018-12-13T18:56:35.044Z,4.10
2018-12-13T18:59:01.499Z,4.10
2018-12-13T19:01:27.900Z,4.20
2018-12-13T19:04:01.344Z,4.20
2018-12-13T19:06:27.732Z,4.20
2018-12-13T19:08:54.124Z,4.20
2018-12-13T19:11:20.542Z,4.00
2018-12-13T19:13:46.941Z,3.90
2018-12-13T19:16:13.332Z,3.90
2018-12-13T19:18:39.735Z,3.60
2018-12-13T19:21:06.155Z,4.00
2018-12-13T19:23:32.653Z,3.90
2018-12-13T19:25:59.020Z,3.80
2018-12-13T19:28:25.494Z,4.10
2018-12-13T19:33:53.935Z,4.00
2018-12-13T19:36:20.394Z,3.90
2018-12-13T19:38:46.811Z,4.00
2018-12-13T19:41:13.172Z,4.00
2018-12-13T19:43:39.563Z,4.00
2018-12-13T19:46:05.971Z,4.00
2018-12-13T19:48:32.328Z,4.10
2018-12-13T19:50:58.952Z,3.90
2018-12-13T19:53:25.760Z,4.30
2018-12-13T19:55:52.159Z,4.20
2018-12-13T19:58:18.553Z,3.90
2018-12-13T20:00:44.948Z,4.30
2018-12-13T20:03:11.440Z,4.10
2018-12-13T20:05:37.821Z,4.30
2018-12-13T20:08:04.421Z,4.00
2018-12-13T20:10:30.842Z,4.20
2018-12-13T20:12:57.182Z,4.20
2018-12-13T20:15:24.217Z,4.10
2018-12-13T20:17:50.842Z,4.10
2018-12-13T20:20:17.230Z,3.90
2018-12-13T20:25:40.207Z,3.90
2018-12-13T20:28:06.641Z,4.10
2018-12-13T20:30:40.030Z,3.90
2018-12-13T20:33:06.403Z,4.10
2018-12-13T20:35:39.878Z,4.20
2018-12-13T20:38:06.267Z,3.90
2018-12-13T20:40:32.643Z,4.20
2018-12-13T20:42:59.029Z,4.40
2018-12-13T20:45:25.404Z,4.40
2018-12-13T20:47:51.783Z,4.20
2018-12-13T20:50:18.150Z,3.90
2018-12-13T20:52:44.531Z,4.50
2018-12-13T20:55:11.059Z,4.10
2018-12-13T20:57:37.426Z,4.20
2018-12-13T21:00:07.273Z,4.10
2018-12-13T21:02:33.880Z,4.20
2018-12-13T21:05:00.407Z,4.20
2018-12-13T21:07:33.797Z,4.10
2018-12-13T21:10:00.238Z,3.90
2018-12-13T21:12:27.003Z,3.90
2018-12-13T21:14:53.402Z,4.10
2018-12-13T21:17:19.791Z,3.90
2018-12-13T21:19:46.279Z,3.80
2018-12-13T21:22:12.800Z,3.90
2018-12-13T21:24:39.292Z,3.80
2018-12-13T21:27:05.767Z,3.90
2018-12-13T21:29:32.134Z,3.70
2018-12-13T21:31:58.532Z,3.90
2018-12-13T21:34:24.921Z,3.90
2018-12-13T21:36:51.289Z,3.90
2018-12-13T21:39:17.776Z,4.00
2018-12-13T21:41:44.156Z,3.70
2018-12-13T21:44:10.551Z,4.20
2018-12-13T21:46:36.928Z,4.20
2018-12-13T21:49:03.296Z,4.40
2018-12-13T21:51:29.687Z,4.40
2018-12-13T21:53:56.055Z,4.30
2018-12-13T21:56:22.468Z,3.90
2018-12-13T21:58:48.876Z,4.10
2018-12-13T22:01:15.315Z,4.20
2018-12-13T22:03:41.804Z,4.20
2018-12-13T22:06:08.173Z,4.20
2018-12-13T22:08:34.574Z,4.20
2018-12-13T22:11:00.947Z,4.50
2018-12-13T22:13:27.332Z,3.90
2018-12-13T22:15:53.717Z,4.00
2018-12-13T22:18:20.098Z,4.10
2018-12-13T22:20:46.495Z,4.10
2018-12-13T22:23:12.874Z,4.20
2018-12-13T22:25:40.422Z,4.40
2018-12-13T22:28:06.903Z,4.50
2018-12-13T22:30:33.295Z,4.50
2018-12-13T22:32:59.671Z,4.70
2018-12-13T22:35:26.078Z,4.40
2018-12-13T22:37:52.456Z,4.50
2018-12-13T22:40:18.929Z,4.40
2018-12-13T22:42:45.302Z,4.40
2018-12-13T22:45:11.755Z,4.50
2018-12-13T22:47:38.158Z,4.50
2018-12-13T22:50:04.682Z,4.70
2018-12-13T22:52:31.204Z,4.40
2018-12-13T22:54:57.563Z,4.50
2018-12-13T22:57:24.060Z,4.80
2018-12-13T22:59:50.456Z,4.60
2018-12-13T23:02:16.964Z,4.60
2018-12-13T23:04:43.369Z,4.50
2018-12-13T23:07:09.744Z,4.60
2018-12-13T23:09:36.159Z,4.60
2018-12-13T23:12:03.107Z,4.30
2018-12-13T23:14:29.590Z,4.50
2018-12-13T23:16:56.419Z,4.50
2018-12-13T23:19:22.766Z,4.30
2018-12-13T23:21:49.270Z,4.50
2018-12-13T23:24:15.651Z,4.50
2018-12-13T23:26:42.035Z,4.60
2018-12-13T23:29:08.394Z,4.70
2018-12-13T23:31:34.765Z,4.30
2018-12-13T23:34:01.160Z,4.40
2018-12-13T23:36:27.526Z,4.60
2018-12-13T23:38:53.908Z,4.60
2018-12-13T23:41:20.313Z,4.70
2018-12-13T23:43:46.717Z,4.50
2018-12-13T23:46:19.939Z,4.50
2018-12-13T23:48:46.320Z,4.50
2018-12-13T23:51:12.707Z,4.30
2018-12-13T23:53:39.086Z,4.50
2018-12-13T23:56:05.610Z,4.50
2018-12-13T23:58:32.519Z,4.20
